sensor_id;sensor_type;location;lat;lon;timestamp;P1;durP1;ratioP1;P2;durP2;ratioP2
48881;SDS011;57063;51.406;-2.402;2024-03-22T00:02:23;8.27;;;5.00;;
48881;SDS011;57063;51.406;-2.402;2024-03-22T00:04:48;10.90;;;5.13;;
48881;SDS011;57063;51.406;-2.402;2024-03-22T00:07:13;7.20;;;4.85;;
48881;SDS011;57063;51.406;-2.402;2024-03-22T00:09:39;9.13;;;4.60;;
48881;SDS011;57063;51.406;-2.402;2024-03-22T00:12:04;8.02;;;4.57;;
48881;SDS011;57063;51.406;-2.402;2024-03-22T00:14:29;7.63;;;4.10;;
48881;SDS011;57063;51.406;-2.402;2024-03-22T00:16:55;7.75;;;4.05;;
48881;SDS011;57063;51.406;-2.402;2024-03-22T00:19:20;9.88;;;4.45;;
48881;SDS011;57063;51.406;-2.402;2024-03-22T00:21:45;8.65;;;4.95;;
48881;SDS011;57063;51.406;-2.402;2024-03-22T00:24:10;6.50;;;4.28;;
48881;SDS011;57063;51.406;-2.402;2024-03-22T00:26:36;10.50;;;4.63;;
48881;SDS011;57063;51.406;-2.402;2024-03-22T00:29:01;6.82;;;4.88;;
48881;SDS011;57063;51.406;-2.402;2024-03-22T00:31:26;8.90;;;4.85;;
48881;SDS011;57063;51.406;-2.402;2024-03-22T00:33:52;9.15;;;5.45;;
48881;SDS011;57063;51.406;-2.402;2024-03-22T00:36:17;7.07;;;4.47;;
48881;SDS011;57063;51.406;-2.402;2024-03-22T00:38:42;8.53;;;5.10;;
48881;SDS011;57063;51.406;-2.402;2024-03-22T00:41:07;9.93;;;5.10;;
48881;SDS011;57063;51.406;-2.402;2024-03-22T00:43:32;10.60;;;5.22;;
48881;SDS011;57063;51.406;-2.402;2024-03-22T00:45:58;7.38;;;4.65;;
48881;SDS011;57063;51.406;-2.402;2024-03-22T00:48:23;7.70;;;4.82;;
48881;SDS011;57063;51.406;-2.402;2024-03-22T00:50:48;8.75;;;4.43;;
48881;SDS011;57063;51.406;-2.402;2024-03-22T00:53:14;7.50;;;4.33;;
48881;SDS011;57063;51.406;-2.402;2024-03-22T00:55:39;9.40;;;4.85;;
48881;SDS011;57063;51.406;-2.402;2024-03-22T00:58:04;7.90;;;4.95;;
48881;SDS011;57063;51.406;-2.402;2024-03-22T01:00:29;8.88;;;5.57;;
48881;SDS011;57063;51.406;-2.402;2024-03-22T01:02:55;11.43;;;4.90;;
48881;SDS011;57063;51.406;-2.402;2024-03-22T01:05:20;15.77;;;5.47;;
48881;SDS011;57063;51.406;-2.402;2024-03-22T01:07:45;7.85;;;4.43;;
48881;SDS011;57063;51.406;-2.402;2024-03-22T01:10:10;8.48;;;5.15;;
48881;SDS011;57063;51.406;-2.402;2024-03-22T01:12:36;8.30;;;4.22;;
48881;SDS011;57063;51.406;-2.402;2024-03-22T01:15:01;8.15;;;4.65;;
48881;SDS011;57063;51.406;-2.402;2024-03-22T01:17:27;9.00;;;4.82;;
48881;SDS011;57063;51.406;-2.402;2024-03-22T01:19:52;14.85;;;4.53;;
48881;SDS011;57063;51.406;-2.402;2024-03-22T01:22:17;10.00;;;5.00;;
48881;SDS011;57063;51.406;-2.402;2024-03-22T01:24:43;5.50;;;3.92;;
48881;SDS011;57063;51.406;-2.402;2024-03-22T01:27:08;8.20;;;4.90;;
48881;SDS011;57063;51.406;-2.402;2024-03-22T01:29:33;7.53;;;3.80;;
48881;SDS011;57063;51.406;-2.402;2024-03-22T01:31:59;7.18;;;4.53;;
48881;SDS011;57063;51.406;-2.402;2024-03-22T01:34:24;8.50;;;4.23;;
48881;SDS011;57063;51.406;-2.402;2024-03-22T01:36:49;6.18;;;4.50;;
48881;SDS011;57063;51.406;-2.402;2024-03-22T01:39:15;7.53;;;4.50;;
48881;SDS011;57063;51.406;-2.402;2024-03-22T01:41:40;11.30;;;4.72;;
48881;SDS011;57063;51.406;-2.402;2024-03-22T01:44:06;8.90;;;4.75;;
48881;SDS011;57063;51.406;-2.402;2024-03-22T01:46:31;7.63;;;4.53;;
48881;SDS011;57063;51.406;-2.402;2024-03-22T01:48:56;9.17;;;5.13;;
48881;SDS011;57063;51.406;-2.402;2024-03-22T01:51:21;10.63;;;4.70;;
48881;SDS011;57063;51.406;-2.402;2024-03-22T01:53:47;11.48;;;5.18;;
48881;SDS011;57063;51.406;-2.402;2024-03-22T01:56:12;7.18;;;4.85;;
48881;SDS011;57063;51.406;-2.402;2024-03-22T01:58:37;7.55;;;4.63;;
48881;SDS011;57063;51.406;-2.402;2024-03-22T02:01:03;9.55;;;4.72;;
48881;SDS011;57063;51.406;-2.402;2024-03-22T02:03:28;11.60;;;4.78;;
48881;SDS011;57063;51.406;-2.402;2024-03-22T02:05:54;13.90;;;4.55;;
48881;SDS011;57063;51.406;-2.402;2024-03-22T02:08:19;8.17;;;4.33;;
48881;SDS011;57063;51.406;-2.402;2024-03-22T02:10:44;11.60;;;5.53;;
48881;SDS011;57063;51.406;-2.402;2024-03-22T02:13:10;10.13;;;4.68;;
48881;SDS011;57063;51.406;-2.402;2024-03-22T02:15:35;13.40;;;5.63;;
48881;SDS011;57063;51.406;-2.402;2024-03-22T02:18:00;10.63;;;4.72;;
48881;SDS011;57063;51.406;-2.402;2024-03-22T02:20:25;8.10;;;4.70;;
48881;SDS011;57063;51.406;-2.402;2024-03-22T02:22:51;10.97;;;5.97;;
48881;SDS011;57063;51.406;-2.402;2024-03-22T02:25:16;8.93;;;5.03;;
48881;SDS011;57063;51.406;-2.402;2024-03-22T02:27:41;13.03;;;5.50;;
48881;SDS011;57063;51.406;-2.402;2024-03-22T02:30:06;9.47;;;4.87;;
48881;SDS011;57063;51.406;-2.402;2024-03-22T02:32:32;12.25;;;4.93;;
48881;SDS011;57063;51.406;-2.402;2024-03-22T02:34:57;11.52;;;6.25;;
48881;SDS011;57063;51.406;-2.402;2024-03-22T02:37:22;12.27;;;5.10;;
48881;SDS011;57063;51.406;-2.402;2024-03-22T02:39:47;11.83;;;5.30;;
48881;SDS011;57063;51.406;-2.402;2024-03-22T02:42:13;11.45;;;5.80;;
48881;SDS011;57063;51.406;-2.402;2024-03-22T02:44:38;11.93;;;7.22;;
48881;SDS011;57063;51.406;-2.402;2024-03-22T02:47:07;14.55;;;6.97;;
48881;SDS011;57063;51.406;-2.402;2024-03-22T02:49:33;7.93;;;4.75;;
48881;SDS011;57063;51.406;-2.402;2024-03-22T02:51:58;7.45;;;5.20;;
48881;SDS011;57063;51.406;-2.402;2024-03-22T02:54:23;14.50;;;5.40;;
48881;SDS011;57063;51.406;-2.402;2024-03-22T02:56:48;12.48;;;4.95;;
48881;SDS011;57063;51.406;-2.402;2024-03-22T02:59:13;11.90;;;5.33;;
48881;SDS011;57063;51.406;-2.402;2024-03-22T03:01:39;10.20;;;4.40;;
48881;SDS011;57063;51.406;-2.402;2024-03-22T03:04:04;10.07;;;4.53;;
48881;SDS011;57063;51.406;-2.402;2024-03-22T03:06:29;10.17;;;4.67;;
48881;SDS011;57063;51.406;-2.402;2024-03-22T03:08:54;20.67;;;4.33;;
48881;SDS011;57063;51.406;-2.402;2024-03-22T03:11:19;9.13;;;3.73;;
48881;SDS011;57063;51.406;-2.402;2024-03-22T03:13:45;7.33;;;3.63;;
48881;SDS011;57063;51.406;-2.402;2024-03-22T03:16:10;8.83;;;4.20;;
48881;SDS011;57063;51.406;-2.402;2024-03-22T03:18:35;6.30;;;3.67;;
48881;SDS011;57063;51.406;-2.402;2024-03-22T03:21:00;7.60;;;4.17;;
48881;SDS011;57063;51.406;-2.402;2024-03-22T03:23:26;6.53;;;4.30;;
48881;SDS011;57063;51.406;-2.402;2024-03-22T03:25:51;7.20;;;4.28;;
48881;SDS011;57063;51.406;-2.402;2024-03-22T03:28:16;8.17;;;4.43;;
48881;SDS011;57063;51.406;-2.402;2024-03-22T03:30:41;8.05;;;4.30;;
48881;SDS011;57063;51.406;-2.402;2024-03-22T03:33:07;9.77;;;5.90;;
48881;SDS011;57063;51.406;-2.402;2024-03-22T03:35:32;9.60;;;5.33;;
48881;SDS011;57063;51.406;-2.402;2024-03-22T03:37:57;8.90;;;5.60;;
48881;SDS011;57063;51.406;-2.402;2024-03-22T03:40:22;9.43;;;4.80;;
48881;SDS011;57063;51.406;-2.402;2024-03-22T03:42:49;9.27;;;5.75;;
48881;SDS011;57063;51.406;-2.402;2024-03-22T03:45:15;11.18;;;6.07;;
48881;SDS011;57063;51.406;-2.402;2024-03-22T03:47:40;10.13;;;5.77;;
48881;SDS011;57063;51.406;-2.402;2024-03-22T03:50:05;9.20;;;5.63;;
48881;SDS011;57063;51.406;-2.402;2024-03-22T03:52:30;11.13;;;6.65;;
48881;SDS011;57063;51.406;-2.402;2024-03-22T03:54:56;14.77;;;5.63;;
48881;SDS011;57063;51.406;-2.402;2024-03-22T03:57:21;14.20;;;7.05;;
48881;SDS011;57063;51.406;-2.402;2024-03-22T03:59:46;11.45;;;6.78;;
48881;SDS011;57063;51.406;-2.402;2024-03-22T04:02:11;10.73;;;6.17;;
48881;SDS011;57063;51.406;-2.402;2024-03-22T04:04:36;10.87;;;6.50;;
48881;SDS011;57063;51.406;-2.402;2024-03-22T04:07:02;9.63;;;5.73;;
48881;SDS011;57063;51.406;-2.402;2024-03-22T04:09:27;10.30;;;6.50;;
48881;SDS011;57063;51.406;-2.402;2024-03-22T04:11:52;10.20;;;6.22;;
48881;SDS011;57063;51.406;-2.402;2024-03-22T04:14:17;12.25;;;6.50;;
48881;SDS011;57063;51.406;-2.402;2024-03-22T04:16:43;8.60;;;6.37;;
48881;SDS011;57063;51.406;-2.402;2024-03-22T04:19:08;14.67;;;6.20;;
48881;SDS011;57063;51.406;-2.402;2024-03-22T04:21:33;10.20;;;6.15;;
48881;SDS011;57063;51.406;-2.402;2024-03-22T04:23:58;8.57;;;5.80;;
48881;SDS011;57063;51.406;-2.402;2024-03-22T04:26:23;8.13;;;5.40;;
48881;SDS011;57063;51.406;-2.402;2024-03-22T04:28:49;9.00;;;5.53;;
48881;SDS011;57063;51.406;-2.402;2024-03-22T04:31:14;6.37;;;5.53;;
48881;SDS011;57063;51.406;-2.402;2024-03-22T04:33:40;10.60;;;5.10;;
48881;SDS011;57063;51.406;-2.402;2024-03-22T04:36:06;8.70;;;5.05;;
48881;SDS011;57063;51.406;-2.402;2024-03-22T04:38:31;9.15;;;4.65;;
48881;SDS011;57063;51.406;-2.402;2024-03-22T04:40:56;11.07;;;5.35;;
48881;SDS011;57063;51.406;-2.402;2024-03-22T04:43:22;5.43;;;4.45;;
48881;SDS011;57063;51.406;-2.402;2024-03-22T04:45:48;7.72;;;4.47;;
48881;SDS011;57063;51.406;-2.402;2024-03-22T04:48:14;7.63;;;5.15;;
48881;SDS011;57063;51.406;-2.402;2024-03-22T04:50:39;7.20;;;4.32;;
48881;SDS011;57063;51.406;-2.402;2024-03-22T04:53:05;8.10;;;4.20;;
48881;SDS011;57063;51.406;-2.402;2024-03-22T04:55:31;9.50;;;4.45;;
48881;SDS011;57063;51.406;-2.402;2024-03-22T04:57:56;6.78;;;4.47;;
48881;SDS011;57063;51.406;-2.402;2024-03-22T05:00:21;7.15;;;4.38;;
48881;SDS011;57063;51.406;-2.402;2024-03-22T05:07:52;6.38;;;3.58;;
48881;SDS011;57063;51.406;-2.402;2024-03-22T05:10:17;9.50;;;3.53;;
48881;SDS011;57063;51.406;-2.402;2024-03-22T05:12:43;6.22;;;4.63;;
48881;SDS011;57063;51.406;-2.402;2024-03-22T05:15:08;4.80;;;3.47;;
48881;SDS011;57063;51.406;-2.402;2024-03-22T05:17:33;3.75;;;2.90;;
48881;SDS011;57063;51.406;-2.402;2024-03-22T05:19:59;4.68;;;2.83;;
48881;SDS011;57063;51.406;-2.402;2024-03-22T05:22:24;3.90;;;2.97;;
48881;SDS011;57063;51.406;-2.402;2024-03-22T05:24:49;3.38;;;2.60;;
48881;SDS011;57063;51.406;-2.402;2024-03-22T05:27:14;4.60;;;2.85;;
48881;SDS011;57063;51.406;-2.402;2024-03-22T05:29:40;2.95;;;2.58;;
48881;SDS011;57063;51.406;-2.402;2024-03-22T05:32:05;3.03;;;2.28;;
48881;SDS011;57063;51.406;-2.402;2024-03-22T05:34:30;4.57;;;2.30;;
48881;SDS011;57063;51.406;-2.402;2024-03-22T05:36:56;2.75;;;2.25;;
48881;SDS011;57063;51.406;-2.402;2024-03-22T05:39:21;2.20;;;1.98;;
48881;SDS011;57063;51.406;-2.402;2024-03-22T05:41:46;2.45;;;1.55;;
48881;SDS011;57063;51.406;-2.402;2024-03-22T05:44:11;1.80;;;1.47;;
48881;SDS011;57063;51.406;-2.402;2024-03-22T05:46:37;2.73;;;1.93;;
48881;SDS011;57063;51.406;-2.402;2024-03-22T05:49:02;1.87;;;1.40;;
48881;SDS011;57063;51.406;-2.402;2024-03-22T05:51:27;2.28;;;1.52;;
48881;SDS011;57063;51.406;-2.402;2024-03-22T05:53:53;1.65;;;1.40;;
48881;SDS011;57063;51.406;-2.402;2024-03-22T05:56:18;1.58;;;1.40;;
48881;SDS011;57063;51.406;-2.402;2024-03-22T05:58:43;1.40;;;1.30;;
48881;SDS011;57063;51.406;-2.402;2024-03-22T06:01:08;1.33;;;1.20;;
48881;SDS011;57063;51.406;-2.402;2024-03-22T06:03:34;2.72;;;1.30;;
48881;SDS011;57063;51.406;-2.402;2024-03-22T06:05:59;1.63;;;1.03;;
48881;SDS011;57063;51.406;-2.402;2024-03-22T06:08:25;1.55;;;1.13;;
48881;SDS011;57063;51.406;-2.402;2024-03-22T06:10:51;3.25;;;0.65;;
48881;SDS011;57063;51.406;-2.402;2024-03-22T06:13:17;1.10;;;1.00;;
48881;SDS011;57063;51.406;-2.402;2024-03-22T06:15:43;1.20;;;0.88;;
48881;SDS011;57063;51.406;-2.402;2024-03-22T06:18:10;0.80;;;0.60;;
48881;SDS011;57063;51.406;-2.402;2024-03-22T06:20:36;0.40;;;0.40;;
48881;SDS011;57063;51.406;-2.402;2024-03-22T06:23:01;0.40;;;0.40;;
48881;SDS011;57063;51.406;-2.402;2024-03-22T06:25:26;0.40;;;0.40;;
48881;SDS011;57063;51.406;-2.402;2024-03-22T06:27:52;1.40;;;0.50;;
48881;SDS011;57063;51.406;-2.402;2024-03-22T06:30:17;0.40;;;0.40;;
48881;SDS011;57063;51.406;-2.402;2024-03-22T06:32:42;0.65;;;0.40;;
48881;SDS011;57063;51.406;-2.402;2024-03-22T06:35:07;0.85;;;0.20;;
48881;SDS011;57063;51.406;-2.402;2024-03-22T06:37:33;0.45;;;0.32;;
48881;SDS011;57063;51.406;-2.402;2024-03-22T06:39:58;0.20;;;0.20;;
48881;SDS011;57063;51.406;-2.402;2024-03-22T06:42:23;0.45;;;0.35;;
48881;SDS011;57063;51.406;-2.402;2024-03-22T06:44:49;0.70;;;0.43;;
48881;SDS011;57063;51.406;-2.402;2024-03-22T06:47:14;2.38;;;1.05;;
48881;SDS011;57063;51.406;-2.402;2024-03-22T06:49:39;1.25;;;0.90;;
48881;SDS011;57063;51.406;-2.402;2024-03-22T06:52:07;1.65;;;1.13;;
48881;SDS011;57063;51.406;-2.402;2024-03-22T06:54:35;0.90;;;0.90;;
48881;SDS011;57063;51.406;-2.402;2024-03-22T06:57:00;1.45;;;1.25;;
48881;SDS011;57063;51.406;-2.402;2024-03-22T06:59:25;1.70;;;1.60;;
48881;SDS011;57063;51.406;-2.402;2024-03-22T07:01:51;2.92;;;1.63;;
48881;SDS011;57063;51.406;-2.402;2024-03-22T07:04:16;1.67;;;1.50;;
48881;SDS011;57063;51.406;-2.402;2024-03-22T07:06:42;4.63;;;2.13;;
48881;SDS011;57063;51.406;-2.402;2024-03-22T07:09:07;2.85;;;1.73;;
48881;SDS011;57063;51.406;-2.402;2024-03-22T07:11:32;4.68;;;1.70;;
48881;SDS011;57063;51.406;-2.402;2024-03-22T07:13:58;2.00;;;1.80;;
48881;SDS011;57063;51.406;-2.402;2024-03-22T07:16:23;2.78;;;1.90;;
48881;SDS011;57063;51.406;-2.402;2024-03-22T07:18:48;2.25;;;1.70;;
48881;SDS011;57063;51.406;-2.402;2024-03-22T07:21:14;2.92;;;1.63;;
48881;SDS011;57063;51.406;-2.402;2024-03-22T07:23:39;2.17;;;1.97;;
48881;SDS011;57063;51.406;-2.402;2024-03-22T07:26:04;2.20;;;2.00;;
48881;SDS011;57063;51.406;-2.402;2024-03-22T07:28:30;2.97;;;2.22;;
48881;SDS011;57063;51.406;-2.402;2024-03-22T07:30:56;2.60;;;2.00;;
48881;SDS011;57063;51.406;-2.402;2024-03-22T07:33:21;2.88;;;2.00;;
48881;SDS011;57063;51.406;-2.402;2024-03-22T07:35:46;3.90;;;1.88;;
48881;SDS011;57063;51.406;-2.402;2024-03-22T07:38:12;2.97;;;2.60;;
48881;SDS011;57063;51.406;-2.402;2024-03-22T07:40:37;2.53;;;1.87;;
48881;SDS011;57063;51.406;-2.402;2024-03-22T07:43:02;2.42;;;1.80;;
48881;SDS011;57063;51.406;-2.402;2024-03-22T07:45:31;2.35;;;1.63;;
48881;SDS011;57063;51.406;-2.402;2024-03-22T07:47:56;3.85;;;1.58;;
48881;SDS011;57063;51.406;-2.402;2024-03-22T07:50:21;2.65;;;1.45;;
48881;SDS011;57063;51.406;-2.402;2024-03-22T07:52:47;2.13;;;1.38;;
48881;SDS011;57063;51.406;-2.402;2024-03-22T07:55:12;2.10;;;1.30;;
48881;SDS011;57063;51.406;-2.402;2024-03-22T07:57:38;2.22;;;1.25;;
48881;SDS011;57063;51.406;-2.402;2024-03-22T08:00:04;2.28;;;1.60;;
48881;SDS011;57063;51.406;-2.402;2024-03-22T08:02:29;2.42;;;1.52;;
48881;SDS011;57063;51.406;-2.402;2024-03-22T08:04:55;1.90;;;1.55;;
48881;SDS011;57063;51.406;-2.402;2024-03-22T08:07:20;3.27;;;1.60;;
48881;SDS011;57063;51.406;-2.402;2024-03-22T08:09:45;1.90;;;1.20;;
48881;SDS011;57063;51.406;-2.402;2024-03-22T08:12:10;1.52;;;1.13;;
48881;SDS011;57063;51.406;-2.402;2024-03-22T08:14:36;2.45;;;1.25;;
48881;SDS011;57063;51.406;-2.402;2024-03-22T08:17:01;2.35;;;0.82;;
48881;SDS011;57063;51.406;-2.402;2024-03-22T08:19:34;0.85;;;0.50;;
48881;SDS011;57063;51.406;-2.402;2024-03-22T08:21:59;0.32;;;0.30;;
48881;SDS011;57063;51.406;-2.402;2024-03-22T08:24:24;0.30;;;0.28;;
48881;SDS011;57063;51.406;-2.402;2024-03-22T08:26:49;0.20;;;0.20;;
48881;SDS011;57063;51.406;-2.402;2024-03-22T08:29:15;3.43;;;0.63;;
48881;SDS011;57063;51.406;-2.402;2024-03-22T08:31:40;2.63;;;0.90;;
48881;SDS011;57063;51.406;-2.402;2024-03-22T08:34:07;3.45;;;0.82;;
48881;SDS011;57063;51.406;-2.402;2024-03-22T08:36:32;6.72;;;1.15;;
48881;SDS011;57063;51.406;-2.402;2024-03-22T08:38:57;5.72;;;0.95;;
48881;SDS011;57063;51.406;-2.402;2024-03-22T08:41:23;4.28;;;1.33;;
48881;SDS011;57063;51.406;-2.402;2024-03-22T08:43:48;9.65;;;1.77;;
48881;SDS011;57063;51.406;-2.402;2024-03-22T08:46:13;5.00;;;0.85;;
48881;SDS011;57063;51.406;-2.402;2024-03-22T08:48:39;5.40;;;1.13;;
48881;SDS011;57063;51.406;-2.402;2024-03-22T08:51:04;3.38;;;1.08;;
48881;SDS011;57063;51.406;-2.402;2024-03-22T08:53:30;3.88;;;0.80;;
48881;SDS011;57063;51.406;-2.402;2024-03-22T08:55:57;5.30;;;1.00;;
48881;SDS011;57063;51.406;-2.402;2024-03-22T08:58:23;5.28;;;0.77;;
48881;SDS011;57063;51.406;-2.402;2024-03-22T09:00:48;3.97;;;0.68;;
48881;SDS011;57063;51.406;-2.402;2024-03-22T09:03:14;5.72;;;0.95;;
48881;SDS011;57063;51.406;-2.402;2024-03-22T09:05:43;3.78;;;1.30;;
48881;SDS011;57063;51.406;-2.402;2024-03-22T09:08:08;5.07;;;1.23;;
48881;SDS011;57063;51.406;-2.402;2024-03-22T09:10:34;4.63;;;0.80;;
48881;SDS011;57063;51.406;-2.402;2024-03-22T09:12:59;9.50;;;1.80;;
48881;SDS011;57063;51.406;-2.402;2024-03-22T09:15:25;7.30;;;1.15;;
48881;SDS011;57063;51.406;-2.402;2024-03-22T09:17:51;5.00;;;1.40;;
48881;SDS011;57063;51.406;-2.402;2024-03-22T09:20:16;10.93;;;2.05;;
48881;SDS011;57063;51.406;-2.402;2024-03-22T09:22:41;8.67;;;1.50;;
48881;SDS011;57063;51.406;-2.402;2024-03-22T09:25:07;9.70;;;1.70;;
48881;SDS011;57063;51.406;-2.402;2024-03-22T09:27:32;8.13;;;1.27;;
48881;SDS011;57063;51.406;-2.402;2024-03-22T09:29:58;4.70;;;1.60;;
48881;SDS011;57063;51.406;-2.402;2024-03-22T09:32:23;18.20;;;2.70;;
48881;SDS011;57063;51.406;-2.402;2024-03-22T09:34:48;11.53;;;1.73;;
48881;SDS011;57063;51.406;-2.402;2024-03-22T09:37:15;12.75;;;2.00;;
48881;SDS011;57063;51.406;-2.402;2024-03-22T09:39:40;8.88;;;1.98;;
48881;SDS011;57063;51.406;-2.402;2024-03-22T09:42:05;9.40;;;2.10;;
48881;SDS011;57063;51.406;-2.402;2024-03-22T09:44:31;20.20;;;3.53;;
48881;SDS011;57063;51.406;-2.402;2024-03-22T09:47:00;17.95;;;3.15;;
48881;SDS011;57063;51.406;-2.402;2024-03-22T09:49:25;15.25;;;2.33;;
48881;SDS011;57063;51.406;-2.402;2024-03-22T09:51:51;11.43;;;1.95;;
48881;SDS011;57063;51.406;-2.402;2024-03-22T09:54:23;17.48;;;2.58;;
48881;SDS011;57063;51.406;-2.402;2024-03-22T09:59:14;19.92;;;2.83;;
48881;SDS011;57063;51.406;-2.402;2024-03-22T10:01:39;17.50;;;3.30;;
48881;SDS011;57063;51.406;-2.402;2024-03-22T10:04:05;14.85;;;3.35;;
48881;SDS011;57063;51.406;-2.402;2024-03-22T10:06:34;20.25;;;3.38;;
48881;SDS011;57063;51.406;-2.402;2024-03-22T10:09:00;14.75;;;2.38;;
48881;SDS011;57063;51.406;-2.402;2024-03-22T10:11:28;15.63;;;2.97;;
48881;SDS011;57063;51.406;-2.402;2024-03-22T10:13:53;12.27;;;2.90;;
48881;SDS011;57063;51.406;-2.402;2024-03-22T10:16:21;17.02;;;2.40;;
48881;SDS011;57063;51.406;-2.402;2024-03-22T10:18:46;17.92;;;3.03;;
48881;SDS011;57063;51.406;-2.402;2024-03-22T10:21:16;12.90;;;2.50;;
48881;SDS011;57063;51.406;-2.402;2024-03-22T10:23:43;14.05;;;3.90;;
48881;SDS011;57063;51.406;-2.402;2024-03-22T10:26:09;16.10;;;3.20;;
48881;SDS011;57063;51.406;-2.402;2024-03-22T10:28:35;14.93;;;2.55;;
48881;SDS011;57063;51.406;-2.402;2024-03-22T10:31:00;16.42;;;3.38;;
48881;SDS011;57063;51.406;-2.402;2024-03-22T10:33:26;15.43;;;3.13;;
48881;SDS011;57063;51.406;-2.402;2024-03-22T10:35:53;18.77;;;3.60;;
48881;SDS011;57063;51.406;-2.402;2024-03-22T10:38:19;22.63;;;3.42;;
48881;SDS011;57063;51.406;-2.402;2024-03-22T10:40:45;21.45;;;4.28;;
48881;SDS011;57063;51.406;-2.402;2024-03-22T10:43:11;26.52;;;3.95;;
48881;SDS011;57063;51.406;-2.402;2024-03-22T10:45:43;21.10;;;3.90;;
48881;SDS011;57063;51.406;-2.402;2024-03-22T10:48:12;25.10;;;3.83;;
48881;SDS011;57063;51.406;-2.402;2024-03-22T10:50:41;22.45;;;4.45;;
48881;SDS011;57063;51.406;-2.402;2024-03-22T10:53:11;22.52;;;3.15;;
48881;SDS011;57063;51.406;-2.402;2024-03-22T10:55:38;17.30;;;3.80;;
48881;SDS011;57063;51.406;-2.402;2024-03-22T10:58:07;20.52;;;4.40;;
48881;SDS011;57063;51.406;-2.402;2024-03-22T11:00:34;23.80;;;3.72;;
48881;SDS011;57063;51.406;-2.402;2024-03-22T11:03:01;21.67;;;3.92;;
48881;SDS011;57063;51.406;-2.402;2024-03-22T11:08:04;18.25;;;3.13;;
48881;SDS011;57063;51.406;-2.402;2024-03-22T11:10:30;16.52;;;3.92;;
48881;SDS011;57063;51.406;-2.402;2024-03-22T11:13:00;22.75;;;3.45;;
48881;SDS011;57063;51.406;-2.402;2024-03-22T11:15:25;16.27;;;3.55;;
48881;SDS011;57063;51.406;-2.402;2024-03-22T11:17:50;24.40;;;4.25;;
48881;SDS011;57063;51.406;-2.402;2024-03-22T11:20:15;22.00;;;3.13;;
48881;SDS011;57063;51.406;-2.402;2024-03-22T11:22:41;27.73;;;4.80;;
48881;SDS011;57063;51.406;-2.402;2024-03-22T11:25:06;20.05;;;4.25;;
48881;SDS011;57063;51.406;-2.402;2024-03-22T11:27:32;17.70;;;3.50;;
48881;SDS011;57063;51.406;-2.402;2024-03-22T11:29:57;22.73;;;4.50;;
48881;SDS011;57063;51.406;-2.402;2024-03-22T11:32:22;16.10;;;3.53;;
48881;SDS011;57063;51.406;-2.402;2024-03-22T11:34:48;23.85;;;4.28;;
48881;SDS011;57063;51.406;-2.402;2024-03-22T11:37:13;22.67;;;4.30;;
48881;SDS011;57063;51.406;-2.402;2024-03-22T11:39:38;23.77;;;6.03;;
48881;SDS011;57063;51.406;-2.402;2024-03-22T11:42:04;24.67;;;3.23;;
48881;SDS011;57063;51.406;-2.402;2024-03-22T11:44:29;21.73;;;4.72;;
48881;SDS011;57063;51.406;-2.402;2024-03-22T11:46:55;16.27;;;3.83;;
48881;SDS011;57063;51.406;-2.402;2024-03-22T11:49:21;31.67;;;4.37;;
48881;SDS011;57063;51.406;-2.402;2024-03-22T11:51:46;23.73;;;3.78;;
48881;SDS011;57063;51.406;-2.402;2024-03-22T11:54:11;18.63;;;4.33;;
48881;SDS011;57063;51.406;-2.402;2024-03-22T11:56:36;29.37;;;4.33;;
48881;SDS011;57063;51.406;-2.402;2024-03-22T11:59:02;26.45;;;4.00;;
48881;SDS011;57063;51.406;-2.402;2024-03-22T12:01:29;26.02;;;4.70;;
48881;SDS011;57063;51.406;-2.402;2024-03-22T12:03:54;23.00;;;3.63;;
48881;SDS011;57063;51.406;-2.402;2024-03-22T12:06:20;15.75;;;3.72;;
48881;SDS011;57063;51.406;-2.402;2024-03-22T12:08:45;20.83;;;7.05;;
48881;SDS011;57063;51.406;-2.402;2024-03-22T12:11:10;31.47;;;10.23;;
48881;SDS011;57063;51.406;-2.402;2024-03-22T12:13:36;22.85;;;5.35;;
48881;SDS011;57063;51.406;-2.402;2024-03-22T12:16:03;21.25;;;4.00;;
48881;SDS011;57063;51.406;-2.402;2024-03-22T12:18:28;23.38;;;4.20;;
48881;SDS011;57063;51.406;-2.402;2024-03-22T12:20:53;27.77;;;5.57;;
48881;SDS011;57063;51.406;-2.402;2024-03-22T12:23:19;23.42;;;7.95;;
48881;SDS011;57063;51.406;-2.402;2024-03-22T12:25:44;20.57;;;3.70;;
48881;SDS011;57063;51.406;-2.402;2024-03-22T12:28:09;26.90;;;4.77;;
48881;SDS011;57063;51.406;-2.402;2024-03-22T12:30:34;20.00;;;3.60;;
48881;SDS011;57063;51.406;-2.402;2024-03-22T12:33:00;23.57;;;4.27;;
48881;SDS011;57063;51.406;-2.402;2024-03-22T12:35:26;26.38;;;4.68;;
48881;SDS011;57063;51.406;-2.402;2024-03-22T12:37:51;25.13;;;4.93;;
48881;SDS011;57063;51.406;-2.402;2024-03-22T12:40:16;24.10;;;5.17;;
48881;SDS011;57063;51.406;-2.402;2024-03-22T12:42:41;20.40;;;3.60;;
48881;SDS011;57063;51.406;-2.402;2024-03-22T12:45:06;22.53;;;3.50;;
48881;SDS011;57063;51.406;-2.402;2024-03-22T12:47:32;24.20;;;4.40;;
48881;SDS011;57063;51.406;-2.402;2024-03-22T12:49:57;28.65;;;4.25;;
48881;SDS011;57063;51.406;-2.402;2024-03-22T12:52:23;22.23;;;4.45;;
48881;SDS011;57063;51.406;-2.402;2024-03-22T12:54:48;27.30;;;4.20;;
48881;SDS011;57063;51.406;-2.402;2024-03-22T12:57:14;17.02;;;3.70;;
48881;SDS011;57063;51.406;-2.402;2024-03-22T12:59:39;16.75;;;2.90;;
48881;SDS011;57063;51.406;-2.402;2024-03-22T13:02:04;15.30;;;3.25;;
48881;SDS011;57063;51.406;-2.402;2024-03-22T13:04:29;15.10;;;2.42;;
48881;SDS011;57063;51.406;-2.402;2024-03-22T13:06:55;15.00;;;2.47;;
48881;SDS011;57063;51.406;-2.402;2024-03-22T13:09:20;16.65;;;3.30;;
48881;SDS011;57063;51.406;-2.402;2024-03-22T13:11:46;18.92;;;3.08;;
48881;SDS011;57063;51.406;-2.402;2024-03-22T13:14:12;19.25;;;2.70;;
48881;SDS011;57063;51.406;-2.402;2024-03-22T13:16:37;15.38;;;2.67;;
48881;SDS011;57063;51.406;-2.402;2024-03-22T13:19:02;16.83;;;2.90;;
48881;SDS011;57063;51.406;-2.402;2024-03-22T13:21:29;12.65;;;2.35;;
48881;SDS011;57063;51.406;-2.402;2024-03-22T13:23:56;15.40;;;2.40;;
48881;SDS011;57063;51.406;-2.402;2024-03-22T13:26:21;14.82;;;2.47;;
48881;SDS011;57063;51.406;-2.402;2024-03-22T13:28:46;15.40;;;3.20;;
48881;SDS011;57063;51.406;-2.402;2024-03-22T13:31:11;12.13;;;2.42;;
48881;SDS011;57063;51.406;-2.402;2024-03-22T13:33:37;15.57;;;2.93;;
48881;SDS011;57063;51.406;-2.402;2024-03-22T13:36:02;16.58;;;2.10;;
48881;SDS011;57063;51.406;-2.402;2024-03-22T13:38:27;15.15;;;2.88;;
48881;SDS011;57063;51.406;-2.402;2024-03-22T13:40:56;13.15;;;2.70;;
48881;SDS011;57063;51.406;-2.402;2024-03-22T13:43:22;12.50;;;2.55;;
48881;SDS011;57063;51.406;-2.402;2024-03-22T13:45:49;18.45;;;2.90;;
48881;SDS011;57063;51.406;-2.402;2024-03-22T13:48:18;11.93;;;2.27;;
48881;SDS011;57063;51.406;-2.402;2024-03-22T13:50:50;14.02;;;2.97;;
48881;SDS011;57063;51.406;-2.402;2024-03-22T13:53:16;18.40;;;2.58;;
48881;SDS011;57063;51.406;-2.402;2024-03-22T13:55:42;16.00;;;2.83;;
48881;SDS011;57063;51.406;-2.402;2024-03-22T13:58:07;16.63;;;3.33;;
48881;SDS011;57063;51.406;-2.402;2024-03-22T14:00:33;12.98;;;2.78;;
48881;SDS011;57063;51.406;-2.402;2024-03-22T14:02:58;13.52;;;2.72;;
48881;SDS011;57063;51.406;-2.402;2024-03-22T14:05:24;10.02;;;2.15;;
48881;SDS011;57063;51.406;-2.402;2024-03-22T14:07:49;14.38;;;2.75;;
48881;SDS011;57063;51.406;-2.402;2024-03-22T14:10:14;14.65;;;2.97;;
48881;SDS011;57063;51.406;-2.402;2024-03-22T14:12:41;17.95;;;2.90;;
48881;SDS011;57063;51.406;-2.402;2024-03-22T14:15:06;19.63;;;3.55;;
48881;SDS011;57063;51.406;-2.402;2024-03-22T14:17:31;12.50;;;2.28;;
48881;SDS011;57063;51.406;-2.402;2024-03-22T14:19:58;10.07;;;1.88;;
48881;SDS011;57063;51.406;-2.402;2024-03-22T14:22:23;12.18;;;2.45;;
48881;SDS011;57063;51.406;-2.402;2024-03-22T14:24:48;13.18;;;2.10;;
48881;SDS011;57063;51.406;-2.402;2024-03-22T14:27:13;6.20;;;1.27;;
48881;SDS011;57063;51.406;-2.402;2024-03-22T14:29:39;13.00;;;1.85;;